Forside
METAR-TAF:

METAR-TAF

Lufthavne :

Roskilde Lufthavn

Roskilde, Danmark

Breddekreds: 55-35N, længdekreds: 012-08E, højde: 44 m

Aktuelle vejr

Denne rapport blev lavet for 41 minutter siden, kl. 09:50 UTC
Vind 7 kt fra østsydøst
Temperatur 5°C
Fugtighed 100%
Tryk 1007 hPa
Sigt: 0550 m
let regn, tåge,

METAR: EKRK 020950Z AUTO 11007KT 0550 R11/1000N R29/1000N -RA FG OVC001/// 05/05 Q1007

Tid: 11:31 (10:31 UTC)

Vejrudsigter

Denne rapport blev lavet for 1 time og 10 minutter siden, kl. 09:21 UTC
Foreløbig gælder fra 02 på 09 UTC til 02 på 18 UTC
Vind 8 kt fra østsydøst
Sigt: 0500 m
Brudte skyer i en højde af 100 ft
tåge
Midlertidig
fra 02 på 09 UTC til 02 på 15 UTC
Sigt: 2000 m
Brudte skyer i en højde af 200 ft
regn, finregn, dis
Sandsynlighed 40%
fra 02 på 15 UTC til 02 på 18 UTC
Sigt: 5000 m
Spredte skyer i en højde af 400 ft

TAF: EKRK 020921Z 0209/0218 12008KT 0500 FG BKN001 TEMPO 0209/0215 2000 RADZ BR BKN002 PROB40 0215/0218 5000 NSW SCT004

Vejrobservationer og prognoser fra mere end 4000 lufthavne (METAR og TAF).

De gule og røde prikker repræsenterer de meteorologiske stationer.

Flyt musen over at se navnet på stationen.

Så klik over at se vejr observationer og prognoser.

At skifte det kort: Klik på de grønne knapper med et sort kors for at zoome ind; på den grønne knap med en bindestreg for at zoome ud; eller på de grønne pile for tilstødende kort.


METAR-TAF: